TFM - Tactical Decision Aid (Experimental) INFO Settings
ID: Runway Winds: CIG/VIS Threshold: METAR Board: Map:

KBNA - Nashville Intl

Updated at: 2301 UTC 20 Feb 2018
Latest TAF at: 2059 UTC 20 Feb 2018

TAF Board

Time2253Z21/00Z21/01Z21/02Z21/03Z21/04Z21/05Z21/06Z21/07Z21/08Z21/09Z21/10Z21/11Z21/12Z
TypeOBSPRVLPRVLPRVLPRVLPRVLPRVLPRVLPRVLPRVLPRVLPRVLPRVLPRVL
VIS10>6>6>6>6>6>6>6>6>6>6>6>6>6
CIG8570707010010010050505050505020
CoverBKNBKNBKNBKNBKNBKNBKNBKNBKNBKNBKNBKNBKNOVC
FltCatVFRVFRVFRVFRVFRVFRVFRVFRVFRVFRVFRVFRVFRMVFR
WX----------------------------
WDir160190190190170170170180180180180180180200
WSpd1216161614141413131313131312
WGst--------22222220202020202020
TAF
KBNA 202059Z 2021/2118 19016KT P6SM SCT050 BKN070 BKN250
  FM210300 17014G22KT P6SM BKN100
  FM210600 18013G20KT P6SM BKN050
  FM211200 20012G20KT P6SM OVC020
  FM211500 21011KT 6SM -SHRA OVC015


METAR
KBNA 202253Z 16012KT 10SM FEW050 BKN085 BKN250 24/14 A3018 RMK AO2 SLP214 T02440144
KBNA 202153Z 19012G20KT 10SM SCT050 BKN080 BKN250 26/14 A3017 RMK AO2 PK WND 18027/2120 SLP212 T02560139

TAF/METAR Board Legend

Potential Impact
  None Marginal Slight Moderate High
Visibility (sm) >5 3≤X≤5 2≤X<3 0.5≤X<2 <0.5
Ceiling (100 ft) >30 10≤X≤30 6≤X<10 2≤X<6 <2
Wind Speed (kt) <10 10≤X<20 20≤X<30 ≥30
Wind Gust (kt) <15 15≤X<25 25≤X<35 ≥35
Weather No Wx Reported VCTS -TS,-FZRA TS,FZRA +TS,+FZRA





Page loaded:  23:01 UTC  |   03:01 PM Pacific  |   04:01 PM Mountain  |   05:01 PM Central  |   06:01 PM Eastern